createdAt,value
2023-01-19T00:02:07.087Z,98871.56
2023-01-19T00:04:48.131Z,98879.47
2023-01-19T00:07:24.169Z,98877.56
2023-01-19T00:09:57.146Z,98880.25
2023-01-19T00:12:30.124Z,98881.25
2023-01-19T00:15:03.541Z,98876.88
2023-01-19T00:17:37.926Z,98876.94
2023-01-19T00:20:12.222Z,98876.94
2023-01-19T00:22:45.159Z,98883.06
2023-01-19T00:25:18.403Z,98880.38
2023-01-19T00:27:51.357Z,98876.03
2023-01-19T00:30:24.343Z,98889.25
2023-01-19T00:32:59.623Z,98900.69
2023-01-19T00:35:33.125Z,98901.63
2023-01-19T00:38:06.310Z,98903.41
2023-01-19T00:40:39.706Z,98912.22
2023-01-19T00:43:12.656Z,98912.28
2023-01-19T00:45:46.918Z,98918.56
2023-01-19T00:48:21.292Z,98922.97
2023-01-19T00:50:54.248Z,98922.09
2023-01-19T00:53:29.156Z,98908.06
2023-01-19T00:56:02.083Z,98912.50
2023-01-19T00:58:35.044Z,98914.25
2023-01-19T01:01:08.143Z,98909.97
2023-01-19T01:03:42.864Z,98914.44
2023-01-19T01:06:17.720Z,98917.13
2023-01-19T01:08:50.863Z,98913.63
2023-01-19T01:11:23.856Z,98911.06
2023-01-19T01:13:56.885Z,98912.84
2023-01-19T01:16:31.949Z,98908.47
2023-01-19T01:19:06.376Z,98905.88
2023-01-19T01:21:39.605Z,98904.88
2023-01-19T01:24:12.644Z,98895.03
2023-01-19T01:26:46.034Z,98883.53
2023-01-19T01:29:19.012Z,98887.84
2023-01-19T01:31:52.130Z,98891.38
2023-01-19T01:34:26.573Z,98886.94
2023-01-19T01:36:59.552Z,98880.72
2023-01-19T01:39:32.517Z,98879.88
2023-01-19T01:42:15.476Z,98877.19
2023-01-19T01:44:51.210Z,98879.94
2023-01-19T01:47:32.094Z,98880.06
2023-01-19T01:50:14.325Z,98872.38
2023-01-19T01:53:06.300Z,98878.72
2023-01-19T01:55:47.879Z,98870.97
2023-01-19T01:58:20.870Z,98876.34
2023-01-19T02:01:19.779Z,98879.06
2023-01-19T02:03:54.065Z,98874.75
2023-01-19T02:06:30.320Z,98885.28
2023-01-19T02:09:29.271Z,98880.97
2023-01-19T02:12:19.540Z,98893.25
2023-01-19T02:14:52.532Z,98894.19
2023-01-19T02:17:25.743Z,98899.44
2023-01-19T02:19:59.006Z,98896.72
2023-01-19T02:22:39.007Z,98898.47
2023-01-19T02:25:13.631Z,98895.00
2023-01-19T02:27:47.101Z,98895.72
2023-01-19T02:30:20.512Z,98895.63
2023-01-19T02:32:53.445Z,98902.56
2023-01-19T02:35:27.033Z,98896.38
2023-01-19T02:38:00.318Z,98895.44
2023-01-19T02:40:35.091Z,98893.53
2023-01-19T02:43:09.203Z,98897.84
2023-01-19T02:45:43.568Z,98894.25
2023-01-19T02:48:18.016Z,98896.72
2023-01-19T02:50:55.027Z,98894.03
2023-01-19T02:54:03.773Z,98887.50
2023-01-19T02:56:50.322Z,98885.72
2023-01-19T02:59:45.797Z,98880.44
2023-01-19T03:02:27.791Z,98882.16
2023-01-19T03:05:13.942Z,98882.16
2023-01-19T03:07:57.598Z,98884.81
2023-01-19T03:10:39.357Z,98890.94
2023-01-19T03:13:20.430Z,98886.47
2023-01-19T03:15:58.052Z,98889.91
2023-01-19T03:18:34.578Z,98896.81
2023-01-19T03:21:08.969Z,98904.69
2023-01-19T03:23:48.626Z,98904.63
2023-01-19T03:26:27.245Z,98914.28
2023-01-19T03:29:04.620Z,98919.63
2023-01-19T03:31:39.338Z,98916.31
2023-01-19T03:34:14.670Z,98913.72
2023-01-19T03:36:52.211Z,98916.44
2023-01-19T03:39:27.799Z,98917.34
2023-01-19T03:42:04.139Z,98914.75
2023-01-19T03:44:40.683Z,98912.16
2023-01-19T03:47:15.905Z,98913.06
2023-01-19T03:49:50.902Z,98907.78
2023-01-19T03:52:32.557Z,98909.47
2023-01-19T03:55:07.297Z,98922.72
2023-01-19T03:57:40.324Z,98927.94
2023-01-19T04:00:16.383Z,98928.84
2023-01-19T04:02:49.368Z,98934.97
2023-01-19T04:05:22.416Z,98938.41
2023-01-19T04:07:55.347Z,98941.91
2023-01-19T04:10:28.287Z,98951.53
2023-01-19T04:13:03.085Z,98948.78
2023-01-19T04:15:37.591Z,98953.16
2023-01-19T04:18:10.561Z,98946.03
2023-01-19T04:20:43.540Z,98945.13
2023-01-19T04:23:16.526Z,98940.69
2023-01-19T04:25:49.488Z,98942.47
2023-01-19T04:28:22.467Z,98940.69
2023-01-19T04:30:56.998Z,98946.81
2023-01-19T04:33:30.448Z,98953.03
2023-01-19T04:36:04.085Z,98953.09
2023-01-19T04:38:37.226Z,98952.28
2023-01-19T04:41:10.247Z,98938.28
2023-01-19T04:43:43.250Z,98955.06
2023-01-19T04:46:17.771Z,98963.03
2023-01-19T04:48:50.976Z,98965.72
2023-01-19T04:51:24.015Z,98971.00
2023-01-19T04:53:57.801Z,98972.81
2023-01-19T04:56:30.795Z,98970.13
2023-01-19T04:59:03.816Z,98970.13
2023-01-19T05:01:38.215Z,98973.72
2023-01-19T05:04:11.186Z,98969.34
2023-01-19T05:06:44.186Z,98973.72
2023-01-19T05:09:17.134Z,98978.06
2023-01-19T05:11:50.075Z,98974.56
2023-01-19T05:14:23.338Z,98983.28
2023-01-19T05:16:58.102Z,98985.91
2023-01-19T05:19:31.156Z,98996.47
2023-01-19T05:22:05.037Z,99001.63
2023-01-19T05:24:38.070Z,99012.19
2023-01-19T05:27:11.389Z,99019.16
2023-01-19T05:29:44.356Z,99027.97
2023-01-19T05:32:18.667Z,99027.13
2023-01-19T05:34:51.648Z,99032.47
2023-01-19T05:37:24.613Z,99042.97
2023-01-19T05:39:57.589Z,99034.19
2023-01-19T05:42:32.691Z,99039.41
2023-01-19T05:45:07.230Z,99019.22
2023-01-19T05:47:41.584Z,99015.72
2023-01-19T05:50:14.757Z,99017.47
2023-01-19T05:52:48.045Z,99028.03
2023-01-19T05:55:21.295Z,99037.75
2023-01-19T05:57:54.340Z,99043.09
2023-01-19T06:00:30.006Z,99054.50
2023-01-19T06:03:06.499Z,99059.81
2023-01-19T06:05:39.714Z,99066.00
2023-01-19T06:08:12.710Z,99062.41
2023-01-19T06:10:45.805Z,99076.44
2023-01-19T06:13:19.192Z,99091.34
2023-01-19T06:15:58.150Z,99109.03
2023-01-19T06:18:32.535Z,99114.41
2023-01-19T06:21:07.394Z,99108.28
2023-01-19T06:23:40.342Z,99110.16
2023-01-19T06:26:13.577Z,99110.97
2023-01-19T06:28:46.702Z,99105.69
2023-01-19T06:31:19.826Z,99117.06
2023-01-19T06:33:54.215Z,99110.00
2023-01-19T06:36:27.230Z,99119.59
2023-01-19T06:39:00.479Z,99121.38
2023-01-19T06:41:33.835Z,99118.69
2023-01-19T06:44:06.904Z,99122.97
2023-01-19T06:46:39.824Z,99124.75
2023-01-19T06:49:14.162Z,99116.84
2023-01-19T06:51:47.136Z,99117.63
2023-01-19T06:54:20.204Z,99111.44
2023-01-19T06:56:53.729Z,99110.56
2023-01-19T06:59:26.729Z,99109.78
2023-01-19T07:01:59.908Z,99109.78
2023-01-19T07:04:54.098Z,99119.53
2023-01-19T07:07:27.242Z,99108.97
2023-01-19T07:10:00.165Z,99116.03
2023-01-19T07:12:33.791Z,99116.09
2023-01-19T07:15:09.513Z,99117.84
2023-01-19T07:17:42.733Z,99118.78
2023-01-19T07:20:19.535Z,99113.47
2023-01-19T07:22:57.377Z,99125.66
2023-01-19T07:25:30.412Z,99127.41
2023-01-19T07:28:04.499Z,99125.63
2023-01-19T07:30:37.592Z,99126.59
2023-01-19T07:33:10.728Z,99125.72
2023-01-19T07:35:49.320Z,99136.19
2023-01-19T07:38:22.918Z,99143.19
2023-01-19T07:41:01.473Z,99145.72
2023-01-19T07:43:35.049Z,99147.53
2023-01-19T07:46:08.501Z,99150.75
2023-01-19T07:48:44.491Z,99153.81
2023-01-19T07:51:19.048Z,99164.53
2023-01-19T07:53:52.281Z,99167.31
2023-01-19T07:56:27.843Z,99178.94
2023-01-19T07:59:00.940Z,99188.84
2023-01-19T08:01:34.119Z,99189.84
2023-01-19T08:04:07.280Z,99180.13
2023-01-19T08:06:42.072Z,99179.28
2023-01-19T08:09:15.031Z,99181.00
2023-01-19T08:11:48.113Z,99187.09
2023-01-19T08:14:21.176Z,99188.81
2023-01-19T08:16:54.176Z,99178.94
2023-01-19T08:19:27.360Z,99164.78
2023-01-19T08:22:02.443Z,99171.69
2023-01-19T08:24:35.409Z,99164.69
2023-01-19T08:27:09.841Z,99173.47
2023-01-19T08:29:42.877Z,99168.13
2023-01-19T08:32:16.070Z,99166.31
2023-01-19T08:34:49.142Z,99171.50
2023-01-19T08:37:24.818Z,99167.00
2023-01-19T08:39:57.775Z,99170.44
2023-01-19T08:42:30.887Z,99172.13
2023-01-19T08:45:03.990Z,99164.22
2023-01-19T08:47:36.989Z,99163.28
2023-01-19T08:50:11.931Z,99171.09
2023-01-19T08:52:46.286Z,99160.47
2023-01-19T08:55:19.463Z,99152.44
2023-01-19T08:57:53.643Z,99160.25
2023-01-19T09:00:27.878Z,99153.13
2023-01-19T09:03:02.209Z,99137.22
2023-01-19T09:05:38.950Z,99138.91
2023-01-19T09:08:15.234Z,99132.59
2023-01-19T09:10:49.834Z,99133.28
2023-01-19T09:13:28.215Z,99145.50
2023-01-19T09:16:03.746Z,99152.53
2023-01-19T09:18:37.121Z,99156.03
2023-01-19T09:21:10.560Z,99160.34
2023-01-19T09:23:45.300Z,99163.78
2023-01-19T09:26:18.294Z,99162.03
2023-01-19T09:28:51.335Z,99168.94
2023-01-19T09:31:24.597Z,99163.59
2023-01-19T09:33:57.824Z,99177.66
2023-01-19T09:36:32.449Z,99183.78
2023-01-19T09:39:06.790Z,99185.50
2023-01-19T09:41:43.967Z,99190.97
2023-01-19T09:44:20.678Z,99193.66
2023-01-19T09:46:53.669Z,99193.88
2023-01-19T09:49:32.369Z,99186.06
2023-01-19T09:52:05.462Z,99186.19
2023-01-19T09:54:45.377Z,99179.16
2023-01-19T09:57:18.391Z,99176.63
2023-01-19T09:59:51.803Z,99168.69
2023-01-19T10:02:36.856Z,99169.53
2023-01-19T10:05:25.412Z,99164.16
2023-01-19T10:08:13.702Z,99158.81
2023-01-19T10:10:52.943Z,99155.38
2023-01-19T10:13:40.613Z,99156.97
2023-01-19T10:16:31.556Z,99146.34
2023-01-19T10:19:19.122Z,99150.50
2023-01-19T10:21:54.297Z,99142.53
2023-01-19T10:24:33.168Z,99145.13
2023-01-19T10:27:22.058Z,99149.38
2023-01-19T10:29:55.687Z,99151.09
2023-01-19T10:32:32.318Z,99149.25
2023-01-19T10:35:21.680Z,99153.44
2023-01-19T10:37:57.788Z,99149.03
2023-01-19T10:40:37.432Z,99157.69
2023-01-19T10:43:38.494Z,99162.81
2023-01-19T10:46:22.545Z,99157.53
2023-01-19T10:48:57.124Z,99164.63
2023-01-19T10:51:30.727Z,99175.22
2023-01-19T10:54:05.737Z,99170.75
2023-01-19T10:56:39.884Z,99176.84
2023-01-19T10:59:27.498Z,99180.66
2023-01-19T11:02:17.022Z,99176.66
2023-01-19T11:04:52.977Z,99178.41
2023-01-19T11:07:30.186Z,99181.03
2023-01-19T11:10:24.005Z,99173.78
2023-01-19T11:13:03.342Z,99169.47
2023-01-19T11:15:42.305Z,99172.09
2023-01-19T11:18:27.055Z,99159.63
2023-01-19T11:21:02.990Z,99157.09
2023-01-19T11:23:42.078Z,99151.75
2023-01-19T11:26:17.187Z,99144.72
2023-01-19T11:28:53.189Z,99139.41
2023-01-19T11:31:33.941Z,99142.00
2023-01-19T11:34:26.359Z,99133.00
2023-01-19T11:37:01.989Z,99122.72
2023-01-19T11:39:48.274Z,99128.78
2023-01-19T11:42:21.478Z,99126.19
2023-01-19T11:45:03.011Z,99131.38
2023-01-19T11:47:42.447Z,99126.81
2023-01-19T11:50:24.753Z,99121.41
2023-01-19T11:53:02.568Z,99117.84
2023-01-19T11:55:40.840Z,99117.75
2023-01-19T11:58:16.916Z,99122.19
2023-01-19T12:00:53.157Z,99119.56
2023-01-19T12:03:31.757Z,99114.28
2023-01-19T12:06:10.941Z,99117.69
2023-01-19T12:08:47.984Z,99121.28
2023-01-19T12:11:24.964Z,99124.84
2023-01-19T12:13:58.007Z,99113.28
2023-01-19T12:16:32.985Z,99110.66
2023-01-19T12:19:11.989Z,99109.72
2023-01-19T12:21:48.996Z,99117.59
2023-01-19T12:24:31.016Z,99106.09
2023-01-19T12:27:16.172Z,99106.09
2023-01-19T12:29:49.930Z,99110.53
2023-01-19T12:32:34.857Z,99111.25
2023-01-19T12:35:31.985Z,99098.16
2023-01-19T12:38:33.728Z,99098.84
2023-01-19T12:41:22.349Z,99092.69
2023-01-19T12:44:30.557Z,99101.34
2023-01-19T12:47:26.605Z,99094.47
2023-01-19T12:50:06.899Z,99104.19
2023-01-19T12:52:47.960Z,99104.25
2023-01-19T12:55:30.999Z,99107.78
2023-01-19T12:58:08.224Z,99106.94
2023-01-19T13:00:43.445Z,99102.53
2023-01-19T13:03:46.334Z,99096.19
2023-01-19T13:06:19.336Z,99090.09
2023-01-19T13:09:02.117Z,99090.91
2023-01-19T13:12:00.731Z,99094.53
2023-01-19T13:14:37.573Z,99099.78
2023-01-19T13:17:33.082Z,99100.44
2023-01-19T13:20:20.010Z,99099.59
2023-01-19T13:23:18.088Z,99110.97
2023-01-19T13:25:54.743Z,99119.00
2023-01-19T13:28:34.199Z,99119.88
2023-01-19T13:31:09.917Z,99119.81
2023-01-19T13:33:50.733Z,99132.13
2023-01-19T13:36:31.621Z,99131.19
2023-01-19T13:39:07.720Z,99129.53
2023-01-19T13:41:42.514Z,99134.03
2023-01-19T13:44:23.739Z,99134.94
2023-01-19T13:46:59.724Z,99138.50
2023-01-19T13:49:36.633Z,99142.88
2023-01-19T13:52:15.234Z,99144.59
2023-01-19T13:54:49.998Z,99127.91
2023-01-19T13:57:28.369Z,99127.84
2023-01-19T14:00:18.076Z,99126.81
2023-01-19T14:02:57.398Z,99131.38
2023-01-19T14:05:32.609Z,99134.94
2023-01-19T14:08:13.060Z,99123.56
2023-01-19T14:10:48.194Z,99127.13
2023-01-19T14:13:26.421Z,99129.84
2023-01-19T14:16:05.859Z,99129.91
2023-01-19T14:18:38.872Z,99136.03
2023-01-19T14:21:13.781Z,99135.19
2023-01-19T14:23:49.080Z,99138.75
2023-01-19T14:26:42.296Z,99143.06
2023-01-19T14:29:26.499Z,99142.25
2023-01-19T14:32:12.412Z,99148.97
2023-01-19T14:34:46.954Z,99150.31
2023-01-19T14:37:23.223Z,99153.03
2023-01-19T14:40:04.513Z,99160.16
2023-01-19T14:42:45.067Z,99165.44
2023-01-19T14:45:21.013Z,99160.16
2023-01-19T14:47:59.642Z,99155.78
2023-01-19T14:50:35.733Z,99156.69
2023-01-19T14:53:18.138Z,99164.56
2023-01-19T14:55:56.682Z,99164.63
2023-01-19T14:58:33.461Z,99173.44
2023-01-19T15:01:06.679Z,99167.31
2023-01-19T15:03:45.579Z,99162.91
2023-01-19T15:06:21.396Z,99168.25
2023-01-19T15:08:54.694Z,99167.38
2023-01-19T15:11:31.242Z,99165.69
2023-01-19T15:14:04.600Z,99159.56
2023-01-19T15:16:37.819Z,99169.22
2023-01-19T15:19:15.188Z,99169.19
2023-01-19T15:21:48.329Z,99165.69
2023-01-19T15:24:21.323Z,99168.25
2023-01-19T15:26:54.314Z,99177.09
2023-01-19T15:29:29.192Z,99187.56
2023-01-19T15:32:03.919Z,99184.06
2023-01-19T15:34:38.340Z,99181.44
2023-01-19T15:37:11.426Z,99188.41
2023-01-19T15:39:44.438Z,99184.06
2023-01-19T15:42:17.506Z,99192.00
2023-01-19T15:44:50.505Z,99197.28
2023-01-19T15:47:23.497Z,99188.47
2023-01-19T15:49:57.895Z,99182.34
2023-01-19T15:52:30.902Z,99187.63
2023-01-19T15:55:09.968Z,99196.34
2023-01-19T15:57:43.231Z,99193.75
2023-01-19T16:00:17.317Z,99199.00
2023-01-19T16:02:52.112Z,99189.41
2023-01-19T16:05:41.319Z,99194.72
2023-01-19T16:08:15.364Z,99193.75
2023-01-19T16:10:48.560Z,99196.47
2023-01-19T16:13:21.708Z,99195.56
2023-01-19T16:15:54.870Z,99200.91
2023-01-19T16:18:27.956Z,99196.47
2023-01-19T16:21:02.797Z,99207.03
2023-01-19T16:23:35.910Z,99205.41
2023-01-19T16:26:23.758Z,99206.31
2023-01-19T16:29:08.008Z,99208.09
2023-01-19T16:31:42.000Z,99213.84
2023-01-19T16:34:15.100Z,99203.66
2023-01-19T16:36:50.214Z,99213.44
2023-01-19T16:39:23.191Z,99214.34
2023-01-19T16:41:56.191Z,99216.13
2023-01-19T16:44:29.297Z,99201.13
2023-01-19T16:47:04.410Z,99210.84
2023-01-19T16:49:40.336Z,99211.69
2023-01-19T16:52:14.711Z,99205.56
2023-01-19T16:54:47.769Z,99213.50
2023-01-19T16:57:27.008Z,99209.19
2023-01-19T17:00:00.133Z,99210.97
2023-01-19T17:02:36.455Z,99204.88
2023-01-19T17:07:37.897Z,99205.06
2023-01-19T17:10:12.550Z,99201.53
2023-01-19T17:12:45.851Z,99209.44
2023-01-19T17:15:18.990Z,99211.19
2023-01-19T17:17:52.040Z,99202.34
2023-01-19T17:20:25.044Z,99192.63
2023-01-19T17:22:59.601Z,99188.19
2023-01-19T17:25:32.847Z,99184.66
2023-01-19T17:28:06.275Z,99193.38
2023-01-19T17:30:39.447Z,99186.38
2023-01-19T17:33:12.751Z,99193.44
2023-01-19T17:35:46.900Z,99195.16
2023-01-19T17:38:26.712Z,99193.38
2023-01-19T17:41:00.173Z,99196.91
2023-01-19T17:43:33.434Z,99200.38
2023-01-19T17:46:06.966Z,99200.44
2023-01-19T17:48:40.872Z,99197.81
2023-01-19T17:51:14.053Z,99198.25
2023-01-19T17:53:48.609Z,99189.09
2023-01-19T17:56:26.236Z,99198.81
2023-01-19T17:59:00.156Z,99199.81
2023-01-19T18:01:34.423Z,99206.03
2023-01-19T18:04:08.451Z,99203.50
2023-01-19T18:06:41.377Z,99195.28
2023-01-19T18:09:16.168Z,99205.34
2023-01-19T18:11:49.185Z,99201.91
2023-01-19T18:14:22.205Z,99202.75
2023-01-19T18:16:55.204Z,99209.81
2023-01-19T18:19:37.423Z,99209.94
2023-01-19T18:22:10.414Z,99202.97
2023-01-19T18:24:45.724Z,99198.75
2023-01-19T18:27:43.351Z,99199.47
2023-01-19T18:30:17.392Z,99203.13
2023-01-19T18:32:51.603Z,99203.97
2023-01-19T18:35:24.570Z,99208.41
2023-01-19T18:37:58.603Z,99211.06
2023-01-19T18:40:33.037Z,99211.06
2023-01-19T18:43:06.065Z,99215.50
2023-01-19T18:45:41.771Z,99216.34
2023-01-19T18:48:16.766Z,99210.22
2023-01-19T18:50:50.968Z,99218.13
2023-01-19T18:53:24.453Z,99219.88
2023-01-19T18:56:01.919Z,99222.59
2023-01-19T18:58:38.115Z,99220.88
2023-01-19T19:01:22.973Z,99214.59
2023-01-19T19:03:57.014Z,99219.09
2023-01-19T19:06:29.850Z,99217.75
2023-01-19T19:09:03.449Z,99221.63
2023-01-19T19:11:37.867Z,99223.47
2023-01-19T19:14:11.177Z,99226.13
2023-01-19T19:16:44.194Z,99231.41
2023-01-19T19:19:17.296Z,99231.41
2023-01-19T19:21:52.126Z,99234.03
2023-01-19T19:24:25.153Z,99241.97
2023-01-19T19:26:59.579Z,99245.41
2023-01-19T19:29:33.653Z,99246.38
2023-01-19T19:32:09.796Z,99245.50
2023-01-19T19:34:47.777Z,99249.94
2023-01-19T19:37:22.921Z,99254.28
2023-01-19T19:39:57.693Z,99249.91
2023-01-19T19:42:32.060Z,99247.25
2023-01-19T19:45:05.576Z,99250.69
2023-01-19T19:47:38.652Z,99252.44
2023-01-19T19:50:12.816Z,99256.03
2023-01-19T19:52:46.152Z,99252.53
2023-01-19T19:55:19.405Z,99258.72
2023-01-19T19:57:55.286Z,99260.56
2023-01-19T20:00:30.233Z,99266.72
2023-01-19T20:03:03.409Z,99263.22
2023-01-19T20:05:36.989Z,99266.75
2023-01-19T20:08:10.124Z,99278.22
2023-01-19T20:10:44.409Z,99272.94
2023-01-19T20:13:19.295Z,99273.84
2023-01-19T20:15:53.892Z,99268.50
2023-01-19T20:18:27.210Z,99270.28
2023-01-19T20:21:02.535Z,99266.75
2023-01-19T20:23:35.720Z,99266.72
2023-01-19T20:26:14.879Z,99259.72
2023-01-19T20:28:49.435Z,99273.78
2023-01-19T20:31:24.860Z,99273.84
2023-01-19T20:33:59.766Z,99275.63
2023-01-19T20:36:38.703Z,99281.75
2023-01-19T20:39:22.395Z,99277.38
2023-01-19T20:41:55.873Z,99280.91
2023-01-19T20:44:30.377Z,99296.72
2023-01-19T20:47:11.381Z,99289.69
2023-01-19T20:49:44.534Z,99293.22
2023-01-19T20:52:17.686Z,99295.81
2023-01-19T20:54:53.200Z,99297.56
2023-01-19T20:57:27.711Z,99303.66
2023-01-19T21:00:04.242Z,99304.50
2023-01-19T21:02:37.329Z,99302.69
2023-01-19T21:05:11.274Z,99301.69
2023-01-19T21:07:44.491Z,99302.59
2023-01-19T21:10:22.753Z,99304.41
2023-01-19T21:12:56.058Z,99308.81
2023-01-19T21:15:30.714Z,99314.97
2023-01-19T21:18:03.840Z,99319.41
2023-01-19T21:20:37.008Z,99316.75
2023-01-19T21:23:10.039Z,99319.41
2023-01-19T21:25:50.882Z,99327.28
2023-01-19T21:28:24.831Z,99337.00
2023-01-19T21:30:59.201Z,99348.78
2023-01-19T21:33:33.092Z,99342.22
2023-01-19T21:36:06.292Z,99347.06
2023-01-19T21:38:41.062Z,99357.19
2023-01-19T21:41:17.274Z,99361.69
2023-01-19T21:43:50.306Z,99366.16
2023-01-19T21:46:29.051Z,99360.06
2023-01-19T21:49:04.059Z,99365.47
2023-01-19T21:51:38.055Z,99371.66
2023-01-19T21:54:10.845Z,99373.97
2023-01-19T21:56:44.265Z,99371.66
2023-01-19T21:59:20.234Z,99374.34
2023-01-19T22:01:55.750Z,99384.06
2023-01-19T22:04:28.831Z,99390.19
2023-01-19T22:07:01.816Z,99388.44
2023-01-19T22:09:35.211Z,99391.03
2023-01-19T22:12:09.945Z,99388.34
2023-01-19T22:14:43.016Z,99379.56
2023-01-19T22:17:20.447Z,99377.06
2023-01-19T22:19:53.451Z,99379.78
2023-01-19T22:22:28.607Z,99389.53
2023-01-19T22:25:01.862Z,99393.06
2023-01-19T22:27:34.863Z,99399.16
2023-01-19T22:30:10.564Z,99405.38
2023-01-19T22:32:47.517Z,99405.44
2023-01-19T22:35:21.262Z,99400.09
2023-01-19T22:37:54.315Z,99407.97
2023-01-19T22:40:30.356Z,99404.34
2023-01-19T22:43:03.516Z,99412.28
2023-01-19T22:45:37.001Z,99416.69
2023-01-19T22:48:11.299Z,99415.00
2023-01-19T22:50:44.263Z,99423.81
2023-01-19T22:53:17.286Z,99431.81
2023-01-19T22:55:50.331Z,99435.34
2023-01-19T22:58:23.307Z,99437.38
2023-01-19T23:00:56.425Z,99438.59
2023-01-19T23:03:31.951Z,99438.72
2023-01-19T23:06:06.096Z,99438.91
2023-01-19T23:08:39.538Z,99442.56
2023-01-19T23:11:14.002Z,99446.13
2023-01-19T23:13:47.090Z,99449.72
2023-01-19T23:16:20.649Z,99446.22
2023-01-19T23:18:55.890Z,99453.34
2023-01-19T23:21:30.731Z,99463.09
2023-01-19T23:24:05.528Z,99464.91
2023-01-19T23:26:38.972Z,99465.78
2023-01-19T23:29:14.636Z,99470.19
2023-01-19T23:31:49.161Z,99476.50
2023-01-19T23:34:23.719Z,99474.88
2023-01-19T23:36:56.924Z,99477.47
2023-01-19T23:39:30.030Z,99477.47
2023-01-19T23:42:03.594Z,99476.59
2023-01-19T23:44:36.847Z,99478.38
2023-01-19T23:47:09.789Z,99477.47
2023-01-19T23:49:44.149Z,99480.09
2023-01-19T23:52:17.138Z,99486.22
2023-01-19T23:54:50.097Z,99489.66
2023-01-19T23:57:23.095Z,99489.63
2023-01-19T23:59:56.071Z,99497.50
